createdAt,value
2019-02-08T00:00:15.827Z,6.35
2019-02-08T00:02:50.839Z,3.30
2019-02-08T00:05:25.299Z,2.95
2019-02-08T00:08:02.572Z,3.30
2019-02-08T00:10:37.031Z,2.75
2019-02-08T00:13:11.447Z,3.30
2019-02-08T00:15:48.302Z,3.92
2019-02-08T00:18:25.167Z,3.83
2019-02-08T00:20:59.655Z,3.60
2019-02-08T00:23:34.042Z,3.60
2019-02-08T00:26:08.481Z,2.92
2019-02-08T00:28:44.208Z,3.10
2019-02-08T00:31:19.498Z,2.90
2019-02-08T00:33:53.929Z,3.17
2019-02-08T00:36:30.772Z,3.37
2019-02-08T00:39:07.828Z,3.40
2019-02-08T00:41:45.624Z,3.40
2019-02-08T00:44:22.533Z,3.10
2019-02-08T00:46:59.542Z,3.40
2019-02-08T00:49:36.434Z,3.12
2019-02-08T00:52:13.430Z,3.27
2019-02-08T00:54:50.411Z,2.70
2019-02-08T00:57:27.418Z,3.05
2019-02-08T01:00:04.468Z,11.70
2019-02-08T01:02:42.089Z,3.60
2019-02-08T01:05:20.674Z,3.17
2019-02-08T01:07:57.627Z,3.25
2019-02-08T01:10:35.514Z,3.37
2019-02-08T01:13:10.033Z,3.67
2019-02-08T01:15:47.336Z,3.62
2019-02-08T01:18:21.753Z,3.00
2019-02-08T01:20:56.166Z,3.85
2019-02-08T01:23:30.931Z,3.70
2019-02-08T01:26:11.092Z,3.85
2019-02-08T01:28:46.710Z,4.10
2019-02-08T01:31:23.719Z,4.25
2019-02-08T01:33:58.208Z,3.42
2019-02-08T01:36:32.705Z,3.80
2019-02-08T01:39:11.685Z,4.05
2019-02-08T01:41:46.182Z,4.33
2019-02-08T01:44:23.283Z,3.83
2019-02-08T01:46:57.926Z,4.25
2019-02-08T01:49:32.981Z,4.20
2019-02-08T01:52:07.606Z,4.12
2019-02-08T01:54:42.523Z,3.80
2019-02-08T01:57:17.555Z,4.08
2019-02-08T01:59:55.478Z,4.85
2019-02-08T02:02:33.223Z,3.98
2019-02-08T02:05:10.887Z,4.00
2019-02-08T02:07:47.838Z,3.70
2019-02-08T02:10:35.083Z,3.92
2019-02-08T02:13:12.984Z,4.00
2019-02-08T02:15:51.272Z,4.05
2019-02-08T02:18:29.513Z,4.08
2019-02-08T02:21:08.584Z,4.58
2019-02-08T02:23:47.321Z,4.05
2019-02-08T02:26:25.654Z,4.62
2019-02-08T02:29:03.811Z,4.40
2019-02-08T02:31:40.853Z,3.90
2019-02-08T02:34:17.705Z,4.05
2019-02-08T02:36:54.921Z,4.90
2019-02-08T02:39:32.145Z,4.92
2019-02-08T02:42:15.897Z,6.22
2019-02-08T02:44:53.570Z,4.65
2019-02-08T02:47:30.520Z,4.15
2019-02-08T02:50:07.638Z,4.47
2019-02-08T02:52:44.638Z,4.40
2019-02-08T02:55:21.654Z,4.12
2019-02-08T02:57:58.764Z,4.55
2019-02-08T03:00:59.203Z,4.17
2019-02-08T03:03:36.755Z,4.37
2019-02-08T03:06:14.610Z,4.62
2019-02-08T03:08:51.667Z,4.17
2019-02-08T03:11:28.983Z,4.65
2019-02-08T03:14:06.941Z,4.67
2019-02-08T03:16:43.752Z,4.53
2019-02-08T03:19:20.748Z,5.17
2019-02-08T03:21:57.662Z,4.42
2019-02-08T03:24:35.884Z,4.45
2019-02-08T03:27:12.772Z,5.10
2019-02-08T03:29:49.659Z,8.58
2019-02-08T03:32:27.052Z,8.23
2019-02-08T03:35:03.975Z,4.12
2019-02-08T03:37:45.990Z,3.95
2019-02-08T03:40:25.938Z,4.75
2019-02-08T03:43:02.822Z,3.92
2019-02-08T03:45:42.963Z,4.87
2019-02-08T03:48:20.385Z,4.53
2019-02-08T03:50:57.582Z,4.67
2019-02-08T03:53:34.956Z,4.50
2019-02-08T03:56:09.417Z,6.58
2019-02-08T03:58:43.864Z,8.13
2019-02-08T04:01:20.822Z,4.40
2019-02-08T04:03:57.819Z,3.70
2019-02-08T04:06:34.715Z,4.53
2019-02-08T04:09:10.635Z,4.80
2019-02-08T04:11:48.670Z,4.30
2019-02-08T04:14:25.570Z,4.87
2019-02-08T04:17:02.608Z,5.00
2019-02-08T04:19:39.481Z,3.70
2019-02-08T04:22:16.375Z,4.05
2019-02-08T04:24:53.314Z,3.80
2019-02-08T04:27:30.212Z,3.83
2019-02-08T04:30:07.230Z,3.08
2019-02-08T04:32:45.939Z,3.15
2019-02-08T04:35:21.138Z,3.00
2019-02-08T04:37:59.624Z,3.25
2019-02-08T04:40:37.352Z,2.92
2019-02-08T04:43:14.197Z,2.85
2019-02-08T04:45:52.357Z,3.05
2019-02-08T04:48:31.599Z,2.45
2019-02-08T04:51:06.208Z,3.25
2019-02-08T04:53:41.182Z,2.70
2019-02-08T04:56:15.582Z,3.33
2019-02-08T04:58:50.511Z,3.12
2019-02-08T05:01:25.248Z,2.90
2019-02-08T05:04:00.045Z,2.70
2019-02-08T05:06:35.144Z,2.72
2019-02-08T05:09:11.413Z,3.17
2019-02-08T05:11:48.269Z,3.05
2019-02-08T05:14:22.772Z,4.78
2019-02-08T05:16:59.601Z,4.97
2019-02-08T05:19:34.149Z,3.30
2019-02-08T05:22:08.599Z,3.72
2019-02-08T05:24:46.142Z,3.42
2019-02-08T05:27:23.407Z,4.03
2019-02-08T05:30:00.328Z,6.83
2019-02-08T05:32:37.301Z,4.83
2019-02-08T05:35:14.398Z,4.50
2019-02-08T05:37:51.287Z,5.42
2019-02-08T05:40:28.169Z,3.70
2019-02-08T05:43:06.063Z,4.10
2019-02-08T05:45:40.491Z,3.60
2019-02-08T05:48:17.361Z,3.98
2019-02-08T05:50:54.335Z,4.10
2019-02-08T05:53:31.235Z,3.90
2019-02-08T05:56:09.125Z,3.72
2019-02-08T05:58:46.032Z,3.80
2019-02-08T06:01:22.920Z,4.60
2019-02-08T06:04:00.142Z,6.25
2019-02-08T06:06:37.074Z,6.20
2019-02-08T06:09:15.541Z,5.90
2019-02-08T06:11:50.421Z,4.85
2019-02-08T06:14:25.238Z,3.83
2019-02-08T06:16:59.643Z,3.92
2019-02-08T06:19:34.089Z,7.20
2019-02-08T06:22:08.911Z,4.75
2019-02-08T06:24:43.304Z,5.62
2019-02-08T06:27:17.676Z,4.87
2019-02-08T06:29:54.501Z,3.52
2019-02-08T06:32:29.171Z,3.40
2019-02-08T06:35:03.567Z,3.83
2019-02-08T06:37:44.231Z,4.28
2019-02-08T06:40:17.642Z,3.98
2019-02-08T06:42:55.626Z,4.17
2019-02-08T06:45:32.506Z,4.25
2019-02-08T06:48:09.378Z,4.22
2019-02-08T06:50:46.265Z,4.30
2019-02-08T06:53:23.105Z,5.15
2019-02-08T06:56:00.210Z,4.47
2019-02-08T06:58:54.694Z,4.40
2019-02-08T07:01:49.523Z,4.00
2019-02-08T07:04:46.653Z,4.65
2019-02-08T07:07:38.247Z,4.35
2019-02-08T07:10:35.252Z,7.87
2019-02-08T07:13:32.424Z,5.33
2019-02-08T07:16:26.668Z,6.50
2019-02-08T07:19:20.786Z,5.22
2019-02-08T07:22:21.769Z,6.45
2019-02-08T07:25:18.624Z,5.33
2019-02-08T07:28:07.521Z,5.40
2019-02-08T07:31:01.127Z,5.20
2019-02-08T07:33:58.342Z,4.80
2019-02-08T07:36:45.557Z,6.97
2019-02-08T07:39:38.400Z,6.53
2019-02-08T07:42:26.343Z,6.97
2019-02-08T07:45:20.284Z,6.10
2019-02-08T07:48:24.069Z,6.10
2019-02-08T07:51:14.873Z,5.30
2019-02-08T07:54:14.969Z,4.55
2019-02-08T07:57:15.132Z,3.52
2019-02-08T08:00:06.160Z,4.35
2019-02-08T08:02:52.395Z,4.70
2019-02-08T08:05:49.960Z,4.40
2019-02-08T08:08:57.122Z,5.05
2019-02-08T08:11:40.414Z,5.78
2019-02-08T08:14:30.747Z,5.97
2019-02-08T08:17:22.547Z,5.62
2019-02-08T08:20:23.724Z,5.03
2019-02-08T08:23:15.523Z,3.17
2019-02-08T08:26:09.900Z,3.95
2019-02-08T08:29:19.897Z,2.92
2019-02-08T08:32:04.542Z,2.50
2019-02-08T08:34:56.064Z,2.15
2019-02-08T08:37:48.045Z,1.98
2019-02-08T08:40:49.290Z,1.60
2019-02-08T08:43:44.934Z,0.90
2019-02-08T08:46:34.988Z,1.77
2019-02-08T08:49:30.677Z,2.10
2019-02-08T08:52:21.322Z,2.35
2019-02-08T08:55:13.257Z,2.20
2019-02-08T08:58:26.762Z,1.77
2019-02-08T09:01:21.895Z,2.45
2019-02-08T09:04:01.524Z,1.90
2019-02-08T09:07:15.909Z,1.70
2019-02-08T09:10:08.355Z,1.60
2019-02-08T09:13:14.557Z,1.72
2019-02-08T09:16:10.713Z,1.65
2019-02-08T09:18:51.931Z,1.90
2019-02-08T09:21:50.491Z,1.92
2019-02-08T09:24:57.907Z,1.77
2019-02-08T09:27:53.443Z,1.92
2019-02-08T09:30:57.430Z,1.52
2019-02-08T09:33:47.773Z,2.00
2019-02-08T09:36:47.385Z,1.87
2019-02-08T09:39:35.710Z,1.60
2019-02-08T09:42:31.026Z,1.70
2019-02-08T09:45:14.768Z,1.47
2019-02-08T09:48:10.363Z,1.60
2019-02-08T09:51:12.456Z,1.70
2019-02-08T09:54:32.585Z,1.70
2019-02-08T09:57:27.699Z,2.55
2019-02-08T10:00:14.572Z,5.97
2019-02-08T10:03:07.638Z,4.08
2019-02-08T10:06:25.106Z,2.12
2019-02-08T10:09:13.317Z,2.47
2019-02-08T10:12:27.069Z,3.50
2019-02-08T10:15:17.166Z,2.55
2019-02-08T10:18:02.463Z,2.33
2019-02-08T10:20:54.044Z,1.90
2019-02-08T10:23:45.550Z,2.22
2019-02-08T10:26:49.739Z,1.90
2019-02-08T10:29:37.127Z,2.10
2019-02-08T10:32:29.170Z,2.45
2019-02-08T10:35:20.396Z,2.33
2019-02-08T10:38:30.589Z,2.27
2019-02-08T10:41:40.804Z,3.40
2019-02-08T10:44:38.286Z,3.02
2019-02-08T10:47:38.939Z,2.70
2019-02-08T10:50:20.613Z,2.58
2019-02-08T10:53:16.037Z,2.80
2019-02-08T10:56:15.090Z,2.75
2019-02-08T10:59:04.188Z,2.52
2019-02-08T11:01:54.615Z,2.75
2019-02-08T11:04:52.401Z,2.50
2019-02-08T11:08:11.118Z,2.80
2019-02-08T11:11:12.269Z,2.30
2019-02-08T11:14:14.994Z,2.20
2019-02-08T11:17:07.336Z,2.25
2019-02-08T11:19:39.563Z,2.50
2019-02-08T11:22:14.469Z,3.00
2019-02-08T11:24:49.075Z,2.55
2019-02-08T11:27:23.852Z,2.65
2019-02-08T11:30:00.998Z,2.90
2019-02-08T11:32:43.414Z,2.50
2019-02-08T11:35:12.951Z,2.87
2019-02-08T11:37:47.417Z,3.50
2019-02-08T11:40:23.954Z,2.35
2019-02-08T11:42:58.499Z,2.75
2019-02-08T11:45:35.321Z,2.60
2019-02-08T11:48:09.841Z,3.08
2019-02-08T11:50:44.293Z,2.65
2019-02-08T11:53:19.706Z,3.25
2019-02-08T11:55:54.183Z,2.92
2019-02-08T11:58:28.967Z,3.52
2019-02-08T12:01:03.366Z,3.60
2019-02-08T12:03:38.383Z,3.22
2019-02-08T12:06:13.772Z,2.27
2019-02-08T12:08:48.282Z,2.70
2019-02-08T12:11:22.663Z,3.10
2019-02-08T12:17:03.537Z,2.87
2019-02-08T12:19:40.378Z,2.37
2019-02-08T12:22:17.264Z,2.60
2019-02-08T12:24:54.138Z,2.50
2019-02-08T12:27:31.052Z,2.30
2019-02-08T12:30:07.865Z,2.40
2019-02-08T12:32:44.627Z,2.30
2019-02-08T12:35:23.034Z,2.40
2019-02-08T12:37:59.225Z,2.30
2019-02-08T12:40:35.594Z,2.10
2019-02-08T12:43:12.535Z,2.10
2019-02-08T12:45:49.226Z,2.17
2019-02-08T12:48:26.016Z,2.00
2019-02-08T12:51:00.264Z,2.15
2019-02-08T12:53:37.047Z,2.17
2019-02-08T12:56:13.714Z,2.47
2019-02-08T12:58:48.012Z,2.00
2019-02-08T13:01:24.677Z,2.42
2019-02-08T13:04:01.368Z,2.30
2019-02-08T13:06:38.067Z,2.30
2019-02-08T13:09:17.432Z,2.37
2019-02-08T13:11:54.152Z,2.40
2019-02-08T13:14:30.908Z,2.10
2019-02-08T13:17:07.605Z,2.35
2019-02-08T13:19:44.472Z,1.92
2019-02-08T13:22:21.205Z,2.27
2019-02-08T13:24:57.984Z,2.17
2019-02-08T13:27:34.683Z,1.80
2019-02-08T13:30:13.111Z,2.00
2019-02-08T13:32:49.794Z,1.95
2019-02-08T13:35:26.562Z,1.90
2019-02-08T13:38:03.206Z,1.70
2019-02-08T13:40:39.853Z,1.80
2019-02-08T13:43:17.816Z,1.80
2019-02-08T13:45:54.561Z,1.90
2019-02-08T13:48:31.308Z,1.70
2019-02-08T13:51:08.063Z,2.00
2019-02-08T13:53:44.823Z,1.80
2019-02-08T13:56:21.586Z,1.85
2019-02-08T13:58:58.281Z,1.80
2019-02-08T14:01:34.939Z,1.70
2019-02-08T14:04:11.824Z,1.70
2019-02-08T14:06:48.566Z,1.90
2019-02-08T14:09:25.288Z,1.90
2019-02-08T14:12:02.062Z,1.70
2019-02-08T14:14:38.713Z,1.80
2019-02-08T14:17:15.367Z,1.42
2019-02-08T14:19:52.078Z,1.60
2019-02-08T14:22:28.724Z,1.60
2019-02-08T14:25:05.470Z,1.70
2019-02-08T14:27:39.801Z,1.98
2019-02-08T14:30:29.397Z,1.80
2019-02-08T14:33:03.690Z,1.98
2019-02-08T14:35:40.396Z,1.67
2019-02-08T14:38:21.235Z,1.80
2019-02-08T14:40:57.844Z,1.70
2019-02-08T14:43:34.606Z,1.98
2019-02-08T14:46:11.278Z,1.80
2019-02-08T14:51:14.133Z,1.80
2019-02-08T14:53:50.806Z,1.90
2019-02-08T14:56:27.531Z,2.20
2019-02-08T14:59:04.256Z,1.80
2019-02-08T15:01:40.908Z,2.12
2019-02-08T15:04:17.512Z,1.85
2019-02-08T15:06:54.227Z,2.00
2019-02-08T15:09:28.502Z,1.70
2019-02-08T15:12:05.225Z,1.70
2019-02-08T15:14:41.934Z,1.90
2019-02-08T15:17:16.224Z,2.00
2019-02-08T15:19:52.983Z,1.85
2019-02-08T15:22:31.041Z,1.85
2019-02-08T15:25:07.775Z,1.87
2019-02-08T15:27:44.503Z,1.70
2019-02-08T15:30:23.690Z,1.90
2019-02-08T15:33:00.470Z,1.90
2019-02-08T15:35:37.353Z,1.72
2019-02-08T15:38:13.841Z,2.20
2019-02-08T15:40:52.914Z,1.90
2019-02-08T15:43:30.857Z,1.70
2019-02-08T15:46:09.808Z,1.90
2019-02-08T15:48:44.208Z,1.80
2019-02-08T15:51:21.618Z,1.75
2019-02-08T15:53:58.411Z,1.92
2019-02-08T15:56:35.137Z,1.87
2019-02-08T15:59:11.832Z,2.08
2019-02-08T16:01:49.961Z,2.10
2019-02-08T16:04:26.362Z,1.92
2019-02-08T16:07:03.053Z,1.80
2019-02-08T16:09:39.849Z,1.98
2019-02-08T16:12:16.457Z,2.00
2019-02-08T16:14:53.113Z,1.98
2019-02-08T16:17:32.557Z,1.98
2019-02-08T16:20:09.415Z,1.80
2019-02-08T16:22:46.046Z,1.70
2019-02-08T16:25:20.446Z,1.50
2019-02-08T16:27:57.116Z,1.70
2019-02-08T16:30:35.478Z,1.55
2019-02-08T16:33:12.395Z,1.90
2019-02-08T16:35:49.118Z,2.00
2019-02-08T16:38:25.782Z,1.50
2019-02-08T16:41:21.668Z,1.30
2019-02-08T16:43:58.374Z,1.10
2019-02-08T16:46:35.198Z,1.30
2019-02-08T16:49:11.872Z,1.30
2019-02-08T16:51:49.280Z,1.10
2019-02-08T16:54:25.931Z,1.20
2019-02-08T16:57:02.677Z,1.30
2019-02-08T16:59:36.966Z,1.30
2019-02-08T17:02:13.635Z,1.45
2019-02-08T17:04:50.312Z,1.40
2019-02-08T17:07:27.055Z,1.20
2019-02-08T17:10:05.977Z,1.20
2019-02-08T17:12:40.313Z,1.10
2019-02-08T17:15:19.255Z,1.40
2019-02-08T17:17:55.908Z,1.12
2019-02-08T17:20:43.587Z,1.15
2019-02-08T17:23:20.235Z,1.10
2019-02-08T17:25:56.957Z,2.10
2019-02-08T17:28:33.732Z,1.30
2019-02-08T17:31:10.452Z,1.35
2019-02-08T17:33:47.259Z,1.27
2019-02-08T17:36:23.967Z,1.20
2019-02-08T17:39:00.751Z,1.30
2019-02-08T17:41:37.437Z,1.20
2019-02-08T17:44:14.449Z,1.20
2019-02-08T17:46:51.096Z,1.10
2019-02-08T17:49:27.747Z,1.25
2019-02-08T17:52:04.479Z,1.12
2019-02-08T17:54:41.242Z,1.30
2019-02-08T17:57:18.841Z,1.20
2019-02-08T17:59:55.576Z,1.22
2019-02-08T18:06:12.823Z,1.20
2019-02-08T18:08:47.161Z,0.90
2019-02-08T18:11:23.955Z,1.02
2019-02-08T18:13:58.258Z,1.10
2019-02-08T18:16:32.702Z,1.12
2019-02-08T18:19:07.011Z,1.15
2019-02-08T18:21:43.882Z,1.10
2019-02-08T18:24:20.649Z,1.10
2019-02-08T18:26:58.138Z,0.93
2019-02-08T18:29:34.820Z,1.00
2019-02-08T18:32:11.520Z,1.20
2019-02-08T18:34:47.924Z,1.45
2019-02-08T18:37:24.873Z,1.40
2019-02-08T18:40:01.661Z,1.32
2019-02-08T18:42:38.404Z,1.30
2019-02-08T18:45:13.337Z,1.10
2019-02-08T18:47:50.154Z,1.17
2019-02-08T18:50:32.134Z,1.20
2019-02-08T18:53:08.891Z,1.10
2019-02-08T18:55:45.602Z,1.22
2019-02-08T18:58:19.922Z,1.02
2019-02-08T19:00:57.305Z,1.22
2019-02-08T19:03:34.125Z,1.40
2019-02-08T19:06:11.335Z,1.40
2019-02-08T19:08:48.060Z,1.30
2019-02-08T19:11:24.776Z,1.42
2019-02-08T19:14:03.480Z,1.50
2019-02-08T19:16:41.540Z,1.45
2019-02-08T19:19:18.211Z,1.20
2019-02-08T19:21:54.900Z,1.60
2019-02-08T19:24:32.908Z,1.20
2019-02-08T19:27:09.676Z,1.55
2019-02-08T19:29:46.423Z,1.65
2019-02-08T19:32:23.132Z,1.42
2019-02-08T19:34:59.734Z,1.62
2019-02-08T19:37:36.491Z,2.10
2019-02-08T19:40:15.085Z,1.80
2019-02-08T19:42:49.421Z,1.80
2019-02-08T19:45:26.216Z,2.15
2019-02-08T19:48:02.899Z,4.08
2019-02-08T19:50:41.656Z,2.20
2019-02-08T19:53:16.083Z,1.57
2019-02-08T19:55:52.760Z,2.05
2019-02-08T19:58:34.330Z,1.67
2019-02-08T20:01:07.393Z,1.70
2019-02-08T20:03:44.232Z,1.80
2019-02-08T20:06:20.989Z,2.12
2019-02-08T20:08:57.648Z,2.50
2019-02-08T20:11:34.295Z,1.95
2019-02-08T20:14:11.027Z,1.35
2019-02-08T20:16:47.954Z,1.37
2019-02-08T20:19:24.621Z,1.20
2019-02-08T20:21:59.103Z,1.30
2019-02-08T20:24:33.386Z,1.50
2019-02-08T20:27:10.298Z,1.30
2019-02-08T20:29:47.090Z,1.50
2019-02-08T20:32:23.847Z,1.22
2019-02-08T20:35:00.551Z,1.37
2019-02-08T20:37:37.199Z,1.42
2019-02-08T20:40:15.691Z,1.47
2019-02-08T20:42:52.383Z,1.70
2019-02-08T20:45:30.992Z,1.90
2019-02-08T20:48:06.490Z,1.30
2019-02-08T20:50:43.187Z,1.30
2019-02-08T20:53:19.948Z,1.42
2019-02-08T20:55:57.376Z,1.30
2019-02-08T20:58:31.959Z,1.62
2019-02-08T21:01:08.696Z,1.50
2019-02-08T21:03:45.366Z,1.60
2019-02-08T21:06:22.087Z,1.50
2019-02-08T21:08:59.153Z,1.60
2019-02-08T21:11:35.908Z,1.85
2019-02-08T21:14:12.676Z,1.80
2019-02-08T21:16:49.349Z,1.50
2019-02-08T21:19:26.119Z,1.85
2019-02-08T21:22:00.434Z,3.12
2019-02-08T21:24:37.189Z,3.85
2019-02-08T21:27:11.512Z,1.95
2019-02-08T21:29:48.338Z,1.40
2019-02-08T21:32:25.040Z,1.67
2019-02-08T21:34:59.379Z,1.75
2019-02-08T21:37:36.244Z,1.50
2019-02-08T21:40:14.611Z,2.10
2019-02-08T21:42:51.336Z,1.60
2019-02-08T21:45:31.450Z,1.62
2019-02-08T21:48:08.267Z,1.30
2019-02-08T21:50:46.316Z,1.55
2019-02-08T21:53:20.651Z,1.57
2019-02-08T21:55:57.407Z,1.30
2019-02-08T21:58:34.575Z,1.27
2019-02-08T22:01:08.995Z,1.32
2019-02-08T22:03:43.323Z,1.17
2019-02-08T22:06:20.106Z,1.60
2019-02-08T22:08:54.469Z,1.72
2019-02-08T22:11:32.482Z,1.50
2019-02-08T22:14:09.292Z,1.30
2019-02-08T22:16:46.047Z,1.25
2019-02-08T22:19:24.657Z,1.65
2019-02-08T22:22:01.370Z,1.50
2019-02-08T22:24:38.099Z,1.35
2019-02-08T22:27:14.840Z,1.40
2019-02-08T22:29:49.167Z,1.35
2019-02-08T22:32:25.896Z,0.90
2019-02-08T22:35:02.583Z,1.00
2019-02-08T22:37:39.303Z,1.10
2019-02-08T22:40:14.945Z,1.27
2019-02-08T22:42:49.358Z,1.47
2019-02-08T22:45:28.540Z,1.30
2019-02-08T22:48:02.805Z,1.22
2019-02-08T22:50:39.585Z,1.30
2019-02-08T22:53:16.749Z,1.20
2019-02-08T22:55:53.461Z,1.20
2019-02-08T22:58:30.381Z,1.30
2019-02-08T23:01:30.640Z,1.15
2019-02-08T23:04:09.363Z,1.35
2019-02-08T23:06:46.095Z,1.52
2019-02-08T23:09:29.156Z,1.05
2019-02-08T23:12:05.963Z,1.20
2019-02-08T23:14:42.888Z,1.65
2019-02-08T23:17:19.557Z,1.27
2019-02-08T23:19:53.935Z,1.10
2019-02-08T23:22:28.255Z,1.55
2019-02-08T23:25:06.427Z,1.20
2019-02-08T23:27:43.236Z,1.20
2019-02-08T23:30:19.978Z,1.10
2019-02-08T23:32:56.736Z,1.25
2019-02-08T23:35:33.471Z,1.05
2019-02-08T23:38:11.497Z,0.85
2019-02-08T23:40:48.334Z,1.30
2019-02-08T23:43:25.079Z,0.90
2019-02-08T23:46:01.797Z,1.55
2019-02-08T23:48:38.538Z,1.10
2019-02-08T23:51:12.934Z,9.85
2019-02-08T23:53:49.683Z,2.10
2019-02-08T23:56:24.058Z,1.10
2019-02-08T23:59:00.886Z,1.02
